createdAt,value
2018-03-14T00:00:51.917Z,42.05
2018-03-14T00:03:19.286Z,42.05
2018-03-14T00:05:46.643Z,42.03
2018-03-14T00:08:14.054Z,42.04
2018-03-14T00:10:41.439Z,41.92
2018-03-14T00:13:08.810Z,41.93
2018-03-14T00:15:36.172Z,41.97
2018-03-14T00:18:03.531Z,41.96
2018-03-14T00:20:30.896Z,41.98
2018-03-14T00:22:58.302Z,41.96
2018-03-14T00:25:25.696Z,41.86
2018-03-14T00:27:53.060Z,41.87
2018-03-14T00:30:20.536Z,41.92
2018-03-14T00:32:47.910Z,41.92
2018-03-14T00:35:15.291Z,41.92
2018-03-14T00:37:42.642Z,41.98
2018-03-14T00:40:10.000Z,41.91
2018-03-14T00:42:37.381Z,41.88
2018-03-14T00:45:04.778Z,41.93
2018-03-14T00:47:32.144Z,41.94
2018-03-14T00:49:59.486Z,41.92
2018-03-14T00:52:26.930Z,41.93
2018-03-14T00:54:54.310Z,41.85
2018-03-14T00:57:21.729Z,41.88
2018-03-14T00:59:49.095Z,41.93
2018-03-14T01:02:16.446Z,41.96
2018-03-14T01:04:43.897Z,41.95
2018-03-14T01:07:11.438Z,41.92
2018-03-14T01:09:38.703Z,41.89
2018-03-14T01:12:06.130Z,41.91
2018-03-14T01:14:33.712Z,41.95
2018-03-14T01:17:01.111Z,41.94
2018-03-14T01:19:28.482Z,41.88
2018-03-14T01:21:55.862Z,41.94
2018-03-14T01:24:23.542Z,41.87
2018-03-14T01:26:50.971Z,41.88
2018-03-14T01:29:18.334Z,41.91
2018-03-14T01:31:45.678Z,41.98
2018-03-14T01:34:13.046Z,41.93
2018-03-14T01:36:40.459Z,41.96
2018-03-14T01:39:07.854Z,41.87
2018-03-14T01:41:35.242Z,41.85
2018-03-14T01:44:02.634Z,41.88
2018-03-14T01:46:29.994Z,41.91
2018-03-14T01:48:57.358Z,41.90
2018-03-14T01:51:24.781Z,41.93
2018-03-14T01:53:52.137Z,41.90
2018-03-14T01:56:19.518Z,41.86
2018-03-14T01:58:47.476Z,41.91
2018-03-14T02:01:14.888Z,41.92
2018-03-14T02:03:42.290Z,41.99
2018-03-14T02:06:09.657Z,41.81
2018-03-14T02:08:37.030Z,41.96
2018-03-14T02:11:04.390Z,42.13
2018-03-14T02:13:31.806Z,42.24
2018-03-14T02:15:59.155Z,42.32
2018-03-14T02:18:26.517Z,42.37
2018-03-14T02:20:53.902Z,42.46
2018-03-14T02:23:21.308Z,42.53
2018-03-14T02:25:48.682Z,42.50
2018-03-14T02:28:16.075Z,42.54
2018-03-14T02:30:43.493Z,42.56
2018-03-14T02:33:10.871Z,42.55
2018-03-14T02:35:38.242Z,42.58
2018-03-14T02:38:05.642Z,42.69
2018-03-14T02:40:33.024Z,42.74
2018-03-14T02:43:00.410Z,42.68
2018-03-14T02:45:27.780Z,42.76
2018-03-14T02:47:55.118Z,42.89
2018-03-14T02:50:22.536Z,42.88
2018-03-14T02:52:49.932Z,42.90
2018-03-14T02:55:17.306Z,42.92
2018-03-14T02:57:44.708Z,43.01
2018-03-14T03:00:12.051Z,43.02
2018-03-14T03:02:39.472Z,43.03
2018-03-14T03:05:06.830Z,43.03
2018-03-14T03:07:34.232Z,43.11
2018-03-14T03:10:01.667Z,43.19
2018-03-14T03:12:29.054Z,43.20
2018-03-14T03:14:56.436Z,43.22
2018-03-14T03:17:23.804Z,43.32
2018-03-14T03:19:51.859Z,43.31
2018-03-14T03:22:19.227Z,43.34
2018-03-14T03:24:46.582Z,43.38
2018-03-14T03:27:14.010Z,43.36
2018-03-14T03:29:41.381Z,43.37
2018-03-14T03:32:08.719Z,43.46
2018-03-14T03:34:36.102Z,43.58
2018-03-14T03:37:03.455Z,43.51
2018-03-14T03:39:30.849Z,43.63
2018-03-14T03:41:58.213Z,43.60
2018-03-14T03:44:25.558Z,43.62
2018-03-14T03:46:52.910Z,43.72
2018-03-14T03:49:20.275Z,43.73
2018-03-14T03:51:47.769Z,43.89
2018-03-14T03:54:15.200Z,43.87
2018-03-14T03:56:42.550Z,43.84
2018-03-14T03:59:09.891Z,43.96
2018-03-14T04:01:37.252Z,43.98
2018-03-14T04:04:04.670Z,44.07
2018-03-14T04:06:32.050Z,44.13
2018-03-14T04:08:59.430Z,44.00
2018-03-14T04:11:27.042Z,44.15
2018-03-14T04:13:54.445Z,44.21
2018-03-14T04:16:21.890Z,44.26
2018-03-14T04:18:49.230Z,44.27
2018-03-14T04:21:16.634Z,44.41
2018-03-14T04:23:44.005Z,44.41
2018-03-14T04:26:11.468Z,44.50
2018-03-14T04:28:38.822Z,44.55
2018-03-14T04:31:06.202Z,44.61
2018-03-14T04:33:33.628Z,44.64
2018-03-14T04:36:01.155Z,44.95
2018-03-14T04:38:28.519Z,44.77
2018-03-14T04:40:55.886Z,44.93
2018-03-14T04:43:23.268Z,44.89
2018-03-14T04:45:50.717Z,44.94
2018-03-14T04:48:18.111Z,45.01
2018-03-14T04:50:45.477Z,45.09
2018-03-14T04:53:12.870Z,45.12
2018-03-14T04:55:40.225Z,45.17
2018-03-14T04:58:07.604Z,45.23
2018-03-14T05:00:35.001Z,45.28
2018-03-14T05:03:02.402Z,45.38
2018-03-14T05:05:29.773Z,45.35
2018-03-14T05:07:57.253Z,45.37
2018-03-14T05:10:24.591Z,45.50
2018-03-14T05:12:52.002Z,45.36
2018-03-14T05:15:19.435Z,45.56
2018-03-14T05:17:46.812Z,45.54
2018-03-14T05:20:14.273Z,45.70
2018-03-14T05:22:41.675Z,45.82
2018-03-14T05:25:09.079Z,45.72
2018-03-14T05:27:36.501Z,45.75
2018-03-14T05:30:03.902Z,45.85
2018-03-14T05:32:31.289Z,45.88
2018-03-14T05:34:59.229Z,45.87
2018-03-14T05:37:26.708Z,45.83
2018-03-14T05:39:59.116Z,45.88
2018-03-14T05:42:28.041Z,45.96
2018-03-14T05:44:55.422Z,46.10
2018-03-14T05:50:06.402Z,46.30
2018-03-14T05:52:34.882Z,46.36
2018-03-14T05:55:02.305Z,46.26
2018-03-14T05:57:29.694Z,46.32
2018-03-14T05:59:57.104Z,46.44
2018-03-14T06:02:24.481Z,46.49
2018-03-14T06:04:51.860Z,46.46
2018-03-14T06:07:19.237Z,46.60
2018-03-14T06:09:46.720Z,46.74
2018-03-14T06:12:14.107Z,46.88
2018-03-14T06:14:41.550Z,46.89
2018-03-14T06:17:08.973Z,46.88
2018-03-14T06:19:36.531Z,46.92
2018-03-14T06:22:03.921Z,46.93
2018-03-14T06:24:31.296Z,47.07
2018-03-14T06:27:00.552Z,47.34
2018-03-14T06:29:28.096Z,47.54
2018-03-14T06:32:02.354Z,47.16
2018-03-14T06:34:32.104Z,47.72
2018-03-14T06:36:59.627Z,47.64
2018-03-14T06:39:27.005Z,47.77
2018-03-14T06:41:54.387Z,47.76
2018-03-14T06:44:21.857Z,47.99
2018-03-14T06:46:49.281Z,47.67
2018-03-14T06:49:16.732Z,47.79
2018-03-14T06:51:44.099Z,47.87
2018-03-14T06:54:12.525Z,47.87
2018-03-14T06:56:40.348Z,47.74
2018-03-14T06:59:07.883Z,47.74
2018-03-14T07:01:35.611Z,47.46
2018-03-14T07:04:08.129Z,47.62
2018-03-14T07:06:35.748Z,47.75
2018-03-14T07:09:03.192Z,47.47
2018-03-14T07:11:30.857Z,47.48
2018-03-14T07:13:58.430Z,47.40
2018-03-14T07:16:25.888Z,47.37
2018-03-14T07:18:53.360Z,46.95
2018-03-14T07:21:20.775Z,46.89
2018-03-14T07:23:51.506Z,46.90
2018-03-14T07:26:19.142Z,46.84
2018-03-14T07:28:46.626Z,46.96
2018-03-14T07:31:14.243Z,46.78
2018-03-14T07:33:41.744Z,46.97
2018-03-14T07:36:09.160Z,46.86
2018-03-14T07:38:36.720Z,46.99
2018-03-14T07:41:04.241Z,46.97
2018-03-14T07:43:33.464Z,46.95
2018-03-14T07:46:03.708Z,46.91
2018-03-14T07:48:31.666Z,46.69
2018-03-14T07:51:00.341Z,46.59
2018-03-14T07:53:28.347Z,46.57
2018-03-14T07:55:56.154Z,46.91
2018-03-14T07:58:24.268Z,46.56
2018-03-14T08:00:52.438Z,46.56
2018-03-14T08:03:22.421Z,46.69
2018-03-14T08:05:50.070Z,46.75
2018-03-14T08:08:20.120Z,46.47
2018-03-14T08:10:47.872Z,46.43
2018-03-14T08:13:15.673Z,46.44
2018-03-14T08:15:44.589Z,46.37
2018-03-14T08:18:12.149Z,46.25
2018-03-14T08:20:39.625Z,46.42
2018-03-14T08:23:07.110Z,46.37
2018-03-14T08:25:35.346Z,46.19
2018-03-14T08:28:04.896Z,46.23
2018-03-14T08:30:32.644Z,46.10
2018-03-14T10:43:16.906Z,45.51
2018-03-14T10:45:44.416Z,45.43
2018-03-14T10:48:11.847Z,45.26
2018-03-14T10:50:39.273Z,45.39
2018-03-14T10:53:06.677Z,45.51
2018-03-14T10:55:34.123Z,45.40
2018-03-14T10:58:01.664Z,45.34
2018-03-14T11:00:29.129Z,45.31
2018-03-14T11:02:56.716Z,45.15
2018-03-14T11:05:24.324Z,45.46
2018-03-14T11:07:51.737Z,45.33
2018-03-14T11:10:19.531Z,45.28
2018-03-14T11:12:47.178Z,45.35
2018-03-14T11:15:14.584Z,45.32
2018-03-14T11:17:42.025Z,45.27
2018-03-14T11:20:09.460Z,45.39
2018-03-14T11:22:36.823Z,45.35
2018-03-14T11:25:04.735Z,45.23
2018-03-14T11:27:32.273Z,45.34
2018-03-14T11:29:59.805Z,45.28
2018-03-14T11:32:27.414Z,45.30
2018-03-14T11:34:54.814Z,45.28
2018-03-14T11:37:22.193Z,45.33
2018-03-14T11:39:49.601Z,45.48
2018-03-14T11:42:16.978Z,45.39
2018-03-14T11:44:44.409Z,45.42
2018-03-14T11:47:11.894Z,45.53
2018-03-14T11:49:39.261Z,45.43
2018-03-14T11:52:06.675Z,45.43
2018-03-14T11:54:34.153Z,45.53
2018-03-14T11:57:01.560Z,45.36
2018-03-14T11:59:30.273Z,45.42
2018-03-14T12:01:57.807Z,45.49
2018-03-14T12:04:25.223Z,45.51
2018-03-14T12:06:52.756Z,45.41
2018-03-14T12:09:22.732Z,45.53
2018-03-14T12:11:50.384Z,45.13
2018-03-14T12:14:17.842Z,44.34
2018-03-14T12:16:45.205Z,44.39
2018-03-14T12:19:12.601Z,43.96
2018-03-14T12:21:40.039Z,43.41
2018-03-14T12:24:07.440Z,43.77
2018-03-14T12:26:34.897Z,43.86
2018-03-14T12:29:02.323Z,43.81
2018-03-14T12:31:29.774Z,43.90
2018-03-14T12:33:57.177Z,43.72
2018-03-14T12:36:24.596Z,43.48
2018-03-14T12:38:51.940Z,42.74
2018-03-14T12:41:19.310Z,42.81
2018-03-14T12:43:46.990Z,42.81
2018-03-14T12:46:17.307Z,42.65
2018-03-14T12:54:44.587Z,42.15
2018-03-14T12:57:12.681Z,42.60
2018-03-14T12:59:40.967Z,42.55
2018-03-14T13:02:08.336Z,43.46
2018-03-14T13:04:36.644Z,43.46
2018-03-14T13:07:04.198Z,43.49
2018-03-14T13:09:31.653Z,43.45
2018-03-14T13:12:00.088Z,43.80
